sensor_id;sensor_type;location;lat;lon;timestamp;P1;durP1;ratioP1;P2;durP2;ratioP2
36833;SDS011;48003;52.084;5.224;2023-11-21T00:02:46;21.6;;;11.0;;
36833;SDS011;48003;52.084;5.224;2023-11-21T00:04:23;22.7;;;12.0;;
36833;SDS011;48003;52.084;5.224;2023-11-21T00:05:59;24.2;;;11.7;;
36833;SDS011;48003;52.084;5.224;2023-11-21T00:09:11;22.6;;;11.4;;
36833;SDS011;48003;52.084;5.224;2023-11-21T00:10:47;25.1;;;11.3;;
36833;SDS011;48003;52.084;5.224;2023-11-21T00:12:23;24.0;;;11.7;;
36833;SDS011;48003;52.084;5.224;2023-11-21T00:13:59;20.11;;;11.1;;
36833;SDS011;48003;52.084;5.224;2023-11-21T00:17:11;19.8;;;10.5;;
36833;SDS011;48003;52.084;5.224;2023-11-21T00:18:47;18.0;;;10.0;;
36833;SDS011;48003;52.084;5.224;2023-11-21T00:20:23;20.41;;;10.6;;
36833;SDS011;48003;52.084;5.224;2023-11-21T00:23:35;20.9;;;10.3;;
36833;SDS011;48003;52.084;5.224;2023-11-21T00:25:12;20.3;;;10.1;;
36833;SDS011;48003;52.084;5.224;2023-11-21T00:26:49;19.41;;;10.3;;
36833;SDS011;48003;52.084;5.224;2023-11-21T00:30:02;20.41;;;10.0;;
36833;SDS011;48003;52.084;5.224;2023-11-21T00:31:39;18.2;;;10.1;;
36833;SDS011;48003;52.084;5.224;2023-11-21T00:33:15;22.3;;;10.8;;
36833;SDS011;48003;52.084;5.224;2023-11-21T00:34:51;22.6;;;11.1;;
36833;SDS011;48003;52.084;5.224;2023-11-21T00:38:03;20.7;;;10.5;;
36833;SDS011;48003;52.084;5.224;2023-11-21T00:39:39;20.3;;;10.5;;
36833;SDS011;48003;52.084;5.224;2023-11-21T00:41:16;22.3;;;10.9;;
36833;SDS011;48003;52.084;5.224;2023-11-21T00:44:28;21.0;;;10.5;;
36833;SDS011;48003;52.084;5.224;2023-11-21T00:46:04;17.8;;;9.81;;
36833;SDS011;48003;52.084;5.224;2023-11-21T00:47:40;21.8;;;10.1;;
36833;SDS011;48003;52.084;5.224;2023-11-21T00:50:52;19.2;;;10.3;;
36833;SDS011;48003;52.084;5.224;2023-11-21T00:52:28;21.3;;;10.1;;
36833;SDS011;48003;52.084;5.224;2023-11-21T00:54:04;26.0;;;10.21;;
36833;SDS011;48003;52.084;5.224;2023-11-21T00:57:17;24.7;;;10.4;;
36833;SDS011;48003;52.084;5.224;2023-11-21T00:58:53;25.2;;;10.8;;
36833;SDS011;48003;52.084;5.224;2023-11-21T01:00:30;26.2;;;10.21;;
36833;SDS011;48003;52.084;5.224;2023-11-21T01:02:06;23.1;;;10.6;;
36833;SDS011;48003;52.084;5.224;2023-11-21T01:05:18;18.3;;;9.81;;
36833;SDS011;48003;52.084;5.224;2023-11-21T01:06:54;21.0;;;10.4;;
36833;SDS011;48003;52.084;5.224;2023-11-21T01:08:30;18.91;;;9.81;;
36833;SDS011;48003;52.084;5.224;2023-11-21T01:11:43;18.3;;;9.5;;
36833;SDS011;48003;52.084;5.224;2023-11-21T01:13:19;18.8;;;9.0;;
36833;SDS011;48003;52.084;5.224;2023-11-21T01:14:55;16.8;;;9.0;;
36833;SDS011;48003;52.084;5.224;2023-11-21T01:18:07;18.0;;;8.9;;
36833;SDS011;48003;52.084;5.224;2023-11-21T01:19:44;18.2;;;9.1;;
36833;SDS011;48003;52.084;5.224;2023-11-21T01:21:20;18.5;;;9.5;;
36833;SDS011;48003;52.084;5.224;2023-11-21T01:24:32;17.8;;;9.71;;
36833;SDS011;48003;52.084;5.224;2023-11-21T01:26:08;16.3;;;9.21;;
36833;SDS011;48003;52.084;5.224;2023-11-21T01:27:44;18.3;;;9.1;;
36833;SDS011;48003;52.084;5.224;2023-11-21T01:29:20;19.41;;;9.21;;
36833;SDS011;48003;52.084;5.224;2023-11-21T01:32:32;20.3;;;9.71;;
36833;SDS011;48003;52.084;5.224;2023-11-21T01:34:08;15.0;;;8.81;;
36833;SDS011;48003;52.084;5.224;2023-11-21T01:35:44;17.91;;;9.21;;
36833;SDS011;48003;52.084;5.224;2023-11-21T01:38:57;16.9;;;8.71;;
36833;SDS011;48003;52.084;5.224;2023-11-21T01:40:33;14.4;;;8.2;;
36833;SDS011;48003;52.084;5.224;2023-11-21T01:42:09;16.61;;;8.81;;
36833;SDS011;48003;52.084;5.224;2023-11-21T01:45:21;17.7;;;9.1;;
36833;SDS011;48003;52.084;5.224;2023-11-21T01:46:57;18.91;;;9.0;;
36833;SDS011;48003;52.084;5.224;2023-11-21T01:48:33;17.3;;;8.71;;
36833;SDS011;48003;52.084;5.224;2023-11-21T01:50:13;14.1;;;8.0;;
36833;SDS011;48003;52.084;5.224;2023-11-21T01:53:28;14.5;;;8.0;;
36833;SDS011;48003;52.084;5.224;2023-11-21T01:55:04;14.7;;;7.1;;
36833;SDS011;48003;52.084;5.224;2023-11-21T01:56:43;16.11;;;7.6;;
36833;SDS011;48003;52.084;5.224;2023-11-21T01:59:58;15.9;;;7.8;;
36833;SDS011;48003;52.084;5.224;2023-11-21T02:01:37;13.3;;;7.3;;
36833;SDS011;48003;52.084;5.224;2023-11-21T02:03:13;18.5;;;8.1;;
36833;SDS011;48003;52.084;5.224;2023-11-21T02:04:49;14.5;;;8.0;;
36833;SDS011;48003;52.084;5.224;2023-11-21T02:08:01;15.5;;;8.71;;
36833;SDS011;48003;52.084;5.224;2023-11-21T02:09:37;19.0;;;9.21;;
36833;SDS011;48003;52.084;5.224;2023-11-21T02:11:13;17.7;;;9.6;;
36833;SDS011;48003;52.084;5.224;2023-11-21T02:14:27;16.9;;;9.4;;
36833;SDS011;48003;52.084;5.224;2023-11-21T02:16:04;13.9;;;8.6;;
36833;SDS011;48003;52.084;5.224;2023-11-21T02:17:41;15.2;;;8.5;;
36833;SDS011;48003;52.084;5.224;2023-11-21T02:20:55;13.6;;;8.4;;
36833;SDS011;48003;52.084;5.224;2023-11-21T02:22:32;15.6;;;8.81;;
36833;SDS011;48003;52.084;5.224;2023-11-21T02:24:15;12.7;;;8.4;;
36833;SDS011;48003;52.084;5.224;2023-11-21T02:25:51;13.4;;;7.8;;
36833;SDS011;48003;52.084;5.224;2023-11-21T02:29:03;12.9;;;7.8;;
36833;SDS011;48003;52.084;5.224;2023-11-21T02:30:40;14.2;;;7.8;;
36833;SDS011;48003;52.084;5.224;2023-11-21T02:32:16;10.7;;;7.8;;
36833;SDS011;48003;52.084;5.224;2023-11-21T02:35:28;13.3;;;7.9;;
36833;SDS011;48003;52.084;5.224;2023-11-21T02:37:04;11.6;;;8.31;;
36833;SDS011;48003;52.084;5.224;2023-11-21T02:38:40;13.7;;;8.31;;
36833;SDS011;48003;52.084;5.224;2023-11-21T02:41:52;12.9;;;7.4;;
36833;SDS011;48003;52.084;5.224;2023-11-21T02:43:28;10.7;;;7.5;;
36833;SDS011;48003;52.084;5.224;2023-11-21T02:45:05;11.9;;;8.2;;
36833;SDS011;48003;52.084;5.224;2023-11-21T02:46:42;12.2;;;7.3;;
36833;SDS011;48003;52.084;5.224;2023-11-21T02:49:55;12.3;;;8.9;;
36833;SDS011;48003;52.084;5.224;2023-11-21T02:51:31;11.6;;;7.7;;
36833;SDS011;48003;52.084;5.224;2023-11-21T02:53:08;13.8;;;8.6;;
36833;SDS011;48003;52.084;5.224;2023-11-21T02:56:20;12.5;;;8.1;;
36833;SDS011;48003;52.084;5.224;2023-11-21T02:57:56;12.4;;;8.1;;
36833;SDS011;48003;52.084;5.224;2023-11-21T02:59:32;13.3;;;8.6;;
36833;SDS011;48003;52.084;5.224;2023-11-21T03:02:44;13.5;;;8.6;;
36833;SDS011;48003;52.084;5.224;2023-11-21T03:04:20;15.3;;;9.0;;
36833;SDS011;48003;52.084;5.224;2023-11-21T03:05:56;15.7;;;8.71;;
36833;SDS011;48003;52.084;5.224;2023-11-21T03:07:32;13.8;;;8.6;;
36833;SDS011;48003;52.084;5.224;2023-11-21T03:10:45;13.5;;;8.71;;
36833;SDS011;48003;52.084;5.224;2023-11-21T03:12:21;12.8;;;8.6;;
36833;SDS011;48003;52.084;5.224;2023-11-21T03:13:57;13.8;;;8.9;;
36833;SDS011;48003;52.084;5.224;2023-11-21T03:17:09;14.7;;;8.1;;
36833;SDS011;48003;52.084;5.224;2023-11-21T03:18:45;14.9;;;8.6;;
36833;SDS011;48003;52.084;5.224;2023-11-21T03:20:21;15.2;;;9.21;;
36833;SDS011;48003;52.084;5.224;2023-11-21T03:23:33;14.5;;;8.6;;
36833;SDS011;48003;52.084;5.224;2023-11-21T03:25:09;13.9;;;8.81;;
36833;SDS011;48003;52.084;5.224;2023-11-21T03:26:46;16.11;;;9.21;;
36833;SDS011;48003;52.084;5.224;2023-11-21T03:29:58;16.2;;;8.81;;
36833;SDS011;48003;52.084;5.224;2023-11-21T03:31:34;14.9;;;9.6;;
36833;SDS011;48003;52.084;5.224;2023-11-21T03:33:10;16.3;;;8.6;;
36833;SDS011;48003;52.084;5.224;2023-11-21T03:34:54;12.2;;;7.7;;
36833;SDS011;48003;52.084;5.224;2023-11-21T03:38:07;13.6;;;8.31;;
36833;SDS011;48003;52.084;5.224;2023-11-21T03:39:45;15.6;;;9.1;;
36833;SDS011;48003;52.084;5.224;2023-11-21T03:41:21;17.5;;;10.1;;
36833;SDS011;48003;52.084;5.224;2023-11-21T03:44:34;15.5;;;8.9;;
36833;SDS011;48003;52.084;5.224;2023-11-21T03:46:10;15.3;;;8.71;;
36833;SDS011;48003;52.084;5.224;2023-11-21T03:47:46;19.61;;;9.9;;
36833;SDS011;48003;52.084;5.224;2023-11-21T03:50:58;18.91;;;9.81;;
36833;SDS011;48003;52.084;5.224;2023-11-21T03:52:34;18.2;;;10.3;;
36833;SDS011;48003;52.084;5.224;2023-11-21T03:54:10;17.91;;;10.3;;
36833;SDS011;48003;52.084;5.224;2023-11-21T03:55:46;20.6;;;10.4;;
36833;SDS011;48003;52.084;5.224;2023-11-21T03:58:58;16.61;;;9.81;;
36833;SDS011;48003;52.084;5.224;2023-11-21T04:00:34;18.0;;;9.9;;
36833;SDS011;48003;52.084;5.224;2023-11-21T04:02:11;19.91;;;10.0;;
36833;SDS011;48003;52.084;5.224;2023-11-21T04:05:23;18.11;;;10.0;;
36833;SDS011;48003;52.084;5.224;2023-11-21T04:06:59;16.0;;;9.4;;
36833;SDS011;48003;52.084;5.224;2023-11-21T04:08:35;15.3;;;9.71;;
36833;SDS011;48003;52.084;5.224;2023-11-21T04:11:47;17.2;;;9.9;;
36833;SDS011;48003;52.084;5.224;2023-11-21T04:13:23;17.91;;;9.81;;
36833;SDS011;48003;52.084;5.224;2023-11-21T04:14:59;18.11;;;10.1;;
36833;SDS011;48003;52.084;5.224;2023-11-21T04:16:35;19.8;;;10.4;;
36833;SDS011;48003;52.084;5.224;2023-11-21T04:19:48;20.11;;;9.9;;
36833;SDS011;48003;52.084;5.224;2023-11-21T04:21:24;18.8;;;9.81;;
36833;SDS011;48003;52.084;5.224;2023-11-21T04:23:00;16.2;;;9.6;;
36833;SDS011;48003;52.084;5.224;2023-11-21T04:26:12;19.2;;;10.4;;
36833;SDS011;48003;52.084;5.224;2023-11-21T04:27:48;18.61;;;10.21;;
36833;SDS011;48003;52.084;5.224;2023-11-21T04:29:24;16.5;;;9.71;;
36833;SDS011;48003;52.084;5.224;2023-11-21T04:32:36;18.61;;;9.4;;
36833;SDS011;48003;52.084;5.224;2023-11-21T04:34:12;15.8;;;8.9;;
36833;SDS011;48003;52.084;5.224;2023-11-21T04:35:48;16.2;;;9.0;;
36833;SDS011;48003;52.084;5.224;2023-11-21T04:39:01;16.5;;;9.5;;
36833;SDS011;48003;52.084;5.224;2023-11-21T04:40:37;16.5;;;9.5;;
36833;SDS011;48003;52.084;5.224;2023-11-21T04:42:13;19.3;;;9.6;;
36833;SDS011;48003;52.084;5.224;2023-11-21T04:43:49;19.91;;;9.71;;
36833;SDS011;48003;52.084;5.224;2023-11-21T04:47:01;18.7;;;9.6;;
36833;SDS011;48003;52.084;5.224;2023-11-21T04:48:38;19.61;;;10.0;;
36833;SDS011;48003;52.084;5.224;2023-11-21T04:50:14;14.1;;;9.1;;
36833;SDS011;48003;52.084;5.224;2023-11-21T04:53:26;16.3;;;9.21;;
36833;SDS011;48003;52.084;5.224;2023-11-21T04:55:03;17.7;;;9.81;;
36833;SDS011;48003;52.084;5.224;2023-11-21T04:56:40;17.61;;;10.21;;
36833;SDS011;48003;52.084;5.224;2023-11-21T04:59:53;17.0;;;8.71;;
36833;SDS011;48003;52.084;5.224;2023-11-21T05:01:29;18.3;;;10.0;;
36833;SDS011;48003;52.084;5.224;2023-11-21T05:03:06;19.8;;;9.31;;
36833;SDS011;48003;52.084;5.224;2023-11-21T05:04:42;20.8;;;10.3;;
36833;SDS011;48003;52.084;5.224;2023-11-21T05:07:54;17.61;;;9.81;;
36833;SDS011;48003;52.084;5.224;2023-11-21T05:09:30;17.61;;;10.0;;
36833;SDS011;48003;52.084;5.224;2023-11-21T05:11:06;17.91;;;9.81;;
36833;SDS011;48003;52.084;5.224;2023-11-21T05:14:19;18.91;;;10.4;;
36833;SDS011;48003;52.084;5.224;2023-11-21T05:15:55;22.5;;;10.4;;
36833;SDS011;48003;52.084;5.224;2023-11-21T05:17:32;20.7;;;10.0;;
36833;SDS011;48003;52.084;5.224;2023-11-21T05:20:44;21.2;;;10.21;;
36833;SDS011;48003;52.084;5.224;2023-11-21T05:22:20;15.9;;;8.71;;
36833;SDS011;48003;52.084;5.224;2023-11-21T05:23:56;16.7;;;9.31;;
36833;SDS011;48003;52.084;5.224;2023-11-21T05:27:09;18.3;;;9.6;;
36833;SDS011;48003;52.084;5.224;2023-11-21T05:28:45;17.5;;;9.21;;
36833;SDS011;48003;52.084;5.224;2023-11-21T05:30:21;19.91;;;9.9;;
36833;SDS011;48003;52.084;5.224;2023-11-21T05:31:58;20.9;;;9.6;;
36833;SDS011;48003;52.084;5.224;2023-11-21T05:35:10;19.41;;;10.3;;
36833;SDS011;48003;52.084;5.224;2023-11-21T05:36:46;16.8;;;10.3;;
36833;SDS011;48003;52.084;5.224;2023-11-21T05:38:22;18.5;;;10.1;;
36833;SDS011;48003;52.084;5.224;2023-11-21T05:41:34;19.5;;;9.9;;
36833;SDS011;48003;52.084;5.224;2023-11-21T05:43:10;22.5;;;10.5;;
36833;SDS011;48003;52.084;5.224;2023-11-21T05:44:46;17.91;;;10.21;;
36833;SDS011;48003;52.084;5.224;2023-11-21T05:47:58;16.8;;;9.1;;
36833;SDS011;48003;52.084;5.224;2023-11-21T05:49:34;25.1;;;9.1;;
36833;SDS011;48003;52.084;5.224;2023-11-21T05:51:11;16.8;;;9.31;;
36833;SDS011;48003;52.084;5.224;2023-11-21T05:54:23;17.8;;;9.81;;
36833;SDS011;48003;52.084;5.224;2023-11-21T05:55:59;22.2;;;9.9;;
36833;SDS011;48003;52.084;5.224;2023-11-21T05:57:36;21.3;;;10.0;;
36833;SDS011;48003;52.084;5.224;2023-11-21T05:59:14;19.8;;;9.6;;
36833;SDS011;48003;52.084;5.224;2023-11-21T06:02:26;21.2;;;9.4;;
36833;SDS011;48003;52.084;5.224;2023-11-21T06:04:02;20.41;;;10.3;;
36833;SDS011;48003;52.084;5.224;2023-11-21T06:05:38;20.41;;;10.3;;
36833;SDS011;48003;52.084;5.224;2023-11-21T06:08:51;22.4;;;10.0;;
36833;SDS011;48003;52.084;5.224;2023-11-21T06:10:27;24.4;;;10.1;;
36833;SDS011;48003;52.084;5.224;2023-11-21T06:12:03;19.91;;;10.0;;
36833;SDS011;48003;52.084;5.224;2023-11-21T06:15:15;19.91;;;10.0;;
36833;SDS011;48003;52.084;5.224;2023-11-21T06:16:51;17.2;;;9.1;;
36833;SDS011;48003;52.084;5.224;2023-11-21T06:18:27;21.2;;;10.5;;
36833;SDS011;48003;52.084;5.224;2023-11-21T06:20:04;20.3;;;10.0;;
36833;SDS011;48003;52.084;5.224;2023-11-21T06:23:21;22.0;;;9.71;;
36833;SDS011;48003;52.084;5.224;2023-11-21T06:24:58;23.0;;;10.1;;
36833;SDS011;48003;52.084;5.224;2023-11-21T06:26:34;25.3;;;10.21;;
36833;SDS011;48003;52.084;5.224;2023-11-21T06:29:46;21.7;;;11.0;;
36833;SDS011;48003;52.084;5.224;2023-11-21T06:31:22;21.5;;;10.6;;
36833;SDS011;48003;52.084;5.224;2023-11-21T06:32:58;24.2;;;10.5;;
36833;SDS011;48003;52.084;5.224;2023-11-21T06:36:10;20.5;;;10.21;;
36833;SDS011;48003;52.084;5.224;2023-11-21T06:37:46;19.0;;;9.9;;
36833;SDS011;48003;52.084;5.224;2023-11-21T06:39:23;21.7;;;10.8;;
36833;SDS011;48003;52.084;5.224;2023-11-21T06:40:58;17.11;;;10.0;;
36833;SDS011;48003;52.084;5.224;2023-11-21T06:44:11;20.9;;;9.81;;
36833;SDS011;48003;52.084;5.224;2023-11-21T06:45:47;17.5;;;10.3;;
36833;SDS011;48003;52.084;5.224;2023-11-21T06:47:23;20.0;;;10.1;;
36833;SDS011;48003;52.084;5.224;2023-11-21T06:50:35;18.61;;;9.6;;
36833;SDS011;48003;52.084;5.224;2023-11-21T06:52:11;17.11;;;9.6;;
36833;SDS011;48003;52.084;5.224;2023-11-21T06:53:47;17.61;;;9.9;;
36833;SDS011;48003;52.084;5.224;2023-11-21T06:56:59;17.7;;;9.4;;
36833;SDS011;48003;52.084;5.224;2023-11-21T06:58:35;17.7;;;9.4;;
36833;SDS011;48003;52.084;5.224;2023-11-21T07:00:12;20.11;;;8.81;;
36833;SDS011;48003;52.084;5.224;2023-11-21T07:01:51;18.61;;;8.81;;
36833;SDS011;48003;52.084;5.224;2023-11-21T07:05:03;20.5;;;9.31;;
36833;SDS011;48003;52.084;5.224;2023-11-21T07:06:40;17.0;;;9.0;;
36833;SDS011;48003;52.084;5.224;2023-11-21T07:08:16;17.0;;;8.81;;
36833;SDS011;48003;52.084;5.224;2023-11-21T07:11:28;17.3;;;9.21;;
36833;SDS011;48003;52.084;5.224;2023-11-21T07:13:04;17.3;;;8.6;;
36833;SDS011;48003;52.084;5.224;2023-11-21T07:14:40;14.4;;;8.31;;
36833;SDS011;48003;52.084;5.224;2023-11-21T07:17:52;22.6;;;8.71;;
36833;SDS011;48003;52.084;5.224;2023-11-21T07:19:28;15.6;;;8.2;;
36833;SDS011;48003;52.084;5.224;2023-11-21T07:21:05;17.41;;;8.4;;
36833;SDS011;48003;52.084;5.224;2023-11-21T07:24:17;15.9;;;8.5;;
36833;SDS011;48003;52.084;5.224;2023-11-21T07:25:53;16.11;;;7.9;;
36833;SDS011;48003;52.084;5.224;2023-11-21T07:27:29;18.91;;;8.6;;
36833;SDS011;48003;52.084;5.224;2023-11-21T07:29:06;14.2;;;7.9;;
36833;SDS011;48003;52.084;5.224;2023-11-21T07:32:18;16.61;;;8.4;;
36833;SDS011;48003;52.084;5.224;2023-11-21T07:33:54;20.41;;;8.4;;
36833;SDS011;48003;52.084;5.224;2023-11-21T07:35:31;16.3;;;8.5;;
36833;SDS011;48003;52.084;5.224;2023-11-21T07:38:44;15.0;;;8.4;;
36833;SDS011;48003;52.084;5.224;2023-11-21T07:40:20;15.6;;;8.5;;
36833;SDS011;48003;52.084;5.224;2023-11-21T07:41:56;15.7;;;8.1;;
36833;SDS011;48003;52.084;5.224;2023-11-21T07:45:08;16.0;;;8.71;;
36833;SDS011;48003;52.084;5.224;2023-11-21T07:46:44;17.3;;;8.81;;
36833;SDS011;48003;52.084;5.224;2023-11-21T07:48:20;15.9;;;9.0;;
36833;SDS011;48003;52.084;5.224;2023-11-21T07:51:32;16.9;;;8.2;;
36833;SDS011;48003;52.084;5.224;2023-11-21T07:53:08;19.5;;;8.9;;
36833;SDS011;48003;52.084;5.224;2023-11-21T07:54:44;15.2;;;8.9;;
36833;SDS011;48003;52.084;5.224;2023-11-21T07:56:20;16.0;;;8.2;;
36833;SDS011;48003;52.084;5.224;2023-11-21T07:59:33;14.5;;;7.4;;
36833;SDS011;48003;52.084;5.224;2023-11-21T08:01:09;14.4;;;7.7;;
36833;SDS011;48003;52.084;5.224;2023-11-21T08:02:45;12.5;;;7.0;;
36833;SDS011;48003;52.084;5.224;2023-11-21T08:05:57;13.2;;;7.1;;
36833;SDS011;48003;52.084;5.224;2023-11-21T08:07:34;10.4;;;6.8;;
36833;SDS011;48003;52.084;5.224;2023-11-21T08:09:10;13.4;;;7.7;;
36833;SDS011;48003;52.084;5.224;2023-11-21T08:12:22;12.2;;;6.5;;
36833;SDS011;48003;52.084;5.224;2023-11-21T08:13:59;10.7;;;6.0;;
36833;SDS011;48003;52.084;5.224;2023-11-21T08:15:35;11.7;;;6.2;;
36833;SDS011;48003;52.084;5.224;2023-11-21T08:17:11;11.0;;;6.1;;
36833;SDS011;48003;52.084;5.224;2023-11-21T08:20:23;11.0;;;6.3;;
36833;SDS011;48003;52.084;5.224;2023-11-21T08:21:59;14.6;;;5.6;;
36833;SDS011;48003;52.084;5.224;2023-11-21T08:23:35;10.6;;;5.7;;
36833;SDS011;48003;52.084;5.224;2023-11-21T08:26:47;8.2;;;5.0;;
36833;SDS011;48003;52.084;5.224;2023-11-21T08:28:23;12.0;;;5.4;;
36833;SDS011;48003;52.084;5.224;2023-11-21T08:29:59;11.8;;;5.5;;
36833;SDS011;48003;52.084;5.224;2023-11-21T08:33:12;11.5;;;5.7;;
36833;SDS011;48003;52.084;5.224;2023-11-21T08:34:48;10.3;;;4.8;;
36833;SDS011;48003;52.084;5.224;2023-11-21T08:36:25;8.2;;;4.91;;
36833;SDS011;48003;52.084;5.224;2023-11-21T08:39:38;9.21;;;4.91;;
36833;SDS011;48003;52.084;5.224;2023-11-21T08:41:14;9.31;;;5.2;;
36833;SDS011;48003;52.084;5.224;2023-11-21T08:42:50;9.1;;;4.61;;
36833;SDS011;48003;52.084;5.224;2023-11-21T08:44:27;9.31;;;4.7;;
36833;SDS011;48003;52.084;5.224;2023-11-21T08:47:38;8.71;;;4.91;;
36833;SDS011;48003;52.084;5.224;2023-11-21T08:49:15;8.71;;;4.61;;
36833;SDS011;48003;52.084;5.224;2023-11-21T08:50:51;8.6;;;4.91;;
36833;SDS011;48003;52.084;5.224;2023-11-21T08:54:03;11.4;;;5.4;;
36833;SDS011;48003;52.084;5.224;2023-11-21T08:55:39;13.3;;;5.3;;
36833;SDS011;48003;52.084;5.224;2023-11-21T08:57:15;10.6;;;4.91;;
36833;SDS011;48003;52.084;5.224;2023-11-21T09:00:27;12.8;;;5.9;;
36833;SDS011;48003;52.084;5.224;2023-11-21T09:02:03;9.5;;;5.11;;
36833;SDS011;48003;52.084;5.224;2023-11-21T09:03:39;8.81;;;4.3;;
36833;SDS011;48003;52.084;5.224;2023-11-21T09:06:52;9.4;;;5.2;;
36833;SDS011;48003;52.084;5.224;2023-11-21T09:08:28;10.21;;;4.61;;
36833;SDS011;48003;52.084;5.224;2023-11-21T09:10:04;9.71;;;4.8;;
36833;SDS011;48003;52.084;5.224;2023-11-21T09:11:41;9.4;;;5.11;;
36833;SDS011;48003;52.084;5.224;2023-11-21T09:14:53;9.6;;;4.91;;
36833;SDS011;48003;52.084;5.224;2023-11-21T09:16:29;10.5;;;5.6;;
36833;SDS011;48003;52.084;5.224;2023-11-21T09:18:05;10.3;;;5.8;;
36833;SDS011;48003;52.084;5.224;2023-11-21T09:21:17;9.1;;;5.2;;
36833;SDS011;48003;52.084;5.224;2023-11-21T09:22:53;10.9;;;5.9;;
36833;SDS011;48003;52.084;5.224;2023-11-21T09:24:29;14.5;;;6.5;;
36833;SDS011;48003;52.084;5.224;2023-11-21T09:27:41;13.1;;;6.3;;
36833;SDS011;48003;52.084;5.224;2023-11-21T09:29:18;14.0;;;6.5;;
36833;SDS011;48003;52.084;5.224;2023-11-21T09:30:54;10.5;;;6.2;;
36833;SDS011;48003;52.084;5.224;2023-11-21T09:32:30;11.8;;;6.9;;
36833;SDS011;48003;52.084;5.224;2023-11-21T09:35:42;11.6;;;7.0;;
36833;SDS011;48003;52.084;5.224;2023-11-21T09:37:18;12.4;;;6.8;;
36833;SDS011;48003;52.084;5.224;2023-11-21T09:38:54;17.7;;;7.6;;
36833;SDS011;48003;52.084;5.224;2023-11-21T09:42:08;12.7;;;7.6;;
36833;SDS011;48003;52.084;5.224;2023-11-21T09:43:46;13.7;;;7.3;;
36833;SDS011;48003;52.084;5.224;2023-11-21T09:45:28;13.2;;;7.3;;
36833;SDS011;48003;52.084;5.224;2023-11-21T09:47:08;11.5;;;7.0;;
36833;SDS011;48003;52.084;5.224;2023-11-21T09:50:27;10.21;;;6.8;;
36833;SDS011;48003;52.084;5.224;2023-11-21T09:52:04;12.4;;;7.1;;
36833;SDS011;48003;52.084;5.224;2023-11-21T09:53:44;12.4;;;7.2;;
36833;SDS011;48003;52.084;5.224;2023-11-21T09:57:03;13.2;;;7.6;;
36833;SDS011;48003;52.084;5.224;2023-11-21T09:58:40;13.4;;;7.9;;
36833;SDS011;48003;52.084;5.224;2023-11-21T10:00:17;15.2;;;8.31;;
36833;SDS011;48003;52.084;5.224;2023-11-21T10:01:55;12.9;;;7.2;;
36833;SDS011;48003;52.084;5.224;2023-11-21T10:05:11;11.5;;;7.5;;
36833;SDS011;48003;52.084;5.224;2023-11-21T10:06:47;11.1;;;7.4;;
36833;SDS011;48003;52.084;5.224;2023-11-21T10:08:23;12.4;;;7.8;;
36833;SDS011;48003;52.084;5.224;2023-11-21T10:11:39;11.9;;;7.0;;
36833;SDS011;48003;52.084;5.224;2023-11-21T10:13:16;11.6;;;7.1;;
36833;SDS011;48003;52.084;5.224;2023-11-21T10:14:53;11.2;;;6.6;;
36833;SDS011;48003;52.084;5.224;2023-11-21T10:16:33;13.2;;;7.0;;
36833;SDS011;48003;52.084;5.224;2023-11-21T10:19:47;13.4;;;7.2;;
36833;SDS011;48003;52.084;5.224;2023-11-21T10:21:24;16.61;;;8.5;;
36833;SDS011;48003;52.084;5.224;2023-11-21T10:23:00;13.4;;;7.0;;
36833;SDS011;48003;52.084;5.224;2023-11-21T10:26:13;10.1;;;6.7;;
36833;SDS011;48003;52.084;5.224;2023-11-21T10:27:49;13.9;;;6.6;;
36833;SDS011;48003;52.084;5.224;2023-11-21T10:29:28;12.3;;;6.7;;
36833;SDS011;48003;52.084;5.224;2023-11-21T10:31:06;11.5;;;6.3;;
36833;SDS011;48003;52.084;5.224;2023-11-21T10:34:19;9.5;;;5.5;;
36833;SDS011;48003;52.084;5.224;2023-11-21T10:35:57;11.1;;;5.7;;
36833;SDS011;48003;52.084;5.224;2023-11-21T10:37:33;11.2;;;5.6;;
36833;SDS011;48003;52.084;5.224;2023-11-21T10:40:50;10.8;;;6.1;;
36833;SDS011;48003;52.084;5.224;2023-11-21T10:42:27;11.0;;;6.1;;
36833;SDS011;48003;52.084;5.224;2023-11-21T10:44:03;9.4;;;5.7;;
36833;SDS011;48003;52.084;5.224;2023-11-21T10:47:16;9.5;;;6.1;;
36833;SDS011;48003;52.084;5.224;2023-11-21T10:48:52;9.5;;;5.11;;
36833;SDS011;48003;52.084;5.224;2023-11-21T10:50:28;8.1;;;5.3;;
36833;SDS011;48003;52.084;5.224;2023-11-21T10:52:04;9.5;;;5.4;;
36833;SDS011;48003;52.084;5.224;2023-11-21T10:55:17;7.7;;;5.0;;
36833;SDS011;48003;52.084;5.224;2023-11-21T10:56:56;9.71;;;4.8;;
36833;SDS011;48003;52.084;5.224;2023-11-21T10:58:33;8.4;;;5.2;;
36833;SDS011;48003;52.084;5.224;2023-11-21T11:01:51;7.9;;;4.91;;
36833;SDS011;48003;52.084;5.224;2023-11-21T11:03:28;10.21;;;5.6;;
36833;SDS011;48003;52.084;5.224;2023-11-21T11:05:04;11.5;;;5.11;;
36833;SDS011;48003;52.084;5.224;2023-11-21T11:06:41;10.7;;;5.5;;
36833;SDS011;48003;52.084;5.224;2023-11-21T11:09:58;10.7;;;6.1;;
36833;SDS011;48003;52.084;5.224;2023-11-21T11:11:34;9.4;;;5.5;;
36833;SDS011;48003;52.084;5.224;2023-11-21T11:13:10;10.1;;;5.6;;
36833;SDS011;48003;52.084;5.224;2023-11-21T11:16:24;11.2;;;6.5;;
36833;SDS011;48003;52.084;5.224;2023-11-21T11:18:00;11.1;;;6.4;;
36833;SDS011;48003;52.084;5.224;2023-11-21T11:19:38;12.0;;;6.4;;
36833;SDS011;48003;52.084;5.224;2023-11-21T11:23:10;10.4;;;6.5;;
36833;SDS011;48003;52.084;5.224;2023-11-21T11:25:14;12.1;;;7.0;;
36833;SDS011;48003;52.084;5.224;2023-11-21T11:27:06;13.8;;;7.0;;
36833;SDS011;48003;52.084;5.224;2023-11-21T11:28:54;12.2;;;7.2;;
36833;SDS011;48003;52.084;5.224;2023-11-21T11:30:41;14.1;;;7.9;;
36833;SDS011;48003;52.084;5.224;2023-11-21T11:32:35;13.9;;;8.1;;
36833;SDS011;48003;52.084;5.224;2023-11-21T11:34:20;12.2;;;7.8;;
36833;SDS011;48003;52.084;5.224;2023-11-21T11:36:04;13.7;;;7.9;;
36833;SDS011;48003;52.084;5.224;2023-11-21T11:39:28;16.3;;;8.4;;
36833;SDS011;48003;52.084;5.224;2023-11-21T11:41:05;18.2;;;8.5;;
36833;SDS011;48003;52.084;5.224;2023-11-21T11:42:54;15.5;;;8.0;;
36833;SDS011;48003;52.084;5.224;2023-11-21T11:44:52;13.4;;;7.9;;
36833;SDS011;48003;52.084;5.224;2023-11-21T11:46:46;17.41;;;9.0;;
36833;SDS011;48003;52.084;5.224;2023-11-21T11:50:01;13.4;;;8.4;;
36833;SDS011;48003;52.084;5.224;2023-11-21T11:51:39;16.61;;;9.31;;
36833;SDS011;48003;52.084;5.224;2023-11-21T11:53:15;14.5;;;8.71;;
36833;SDS011;48003;52.084;5.224;2023-11-21T11:54:51;14.9;;;8.9;;
36833;SDS011;48003;52.084;5.224;2023-11-21T11:58:07;15.7;;;9.4;;
36833;SDS011;48003;52.084;5.224;2023-11-21T12:00:06;16.0;;;9.31;;
36833;SDS011;48003;52.084;5.224;2023-11-21T12:01:44;15.8;;;9.1;;
36833;SDS011;48003;52.084;5.224;2023-11-21T12:03:22;14.2;;;8.9;;
36833;SDS011;48003;52.084;5.224;2023-11-21T12:06:35;17.11;;;9.0;;
36833;SDS011;48003;52.084;5.224;2023-11-21T12:08:11;15.1;;;8.4;;
36833;SDS011;48003;52.084;5.224;2023-11-21T12:09:47;15.3;;;8.71;;
36833;SDS011;48003;52.084;5.224;2023-11-21T12:13:06;18.11;;;8.71;;
36833;SDS011;48003;52.084;5.224;2023-11-21T12:14:44;14.4;;;8.31;;
36833;SDS011;48003;52.084;5.224;2023-11-21T12:16:21;16.11;;;8.81;;
36833;SDS011;48003;52.084;5.224;2023-11-21T12:17:57;16.61;;;9.4;;
36833;SDS011;48003;52.084;5.224;2023-11-21T12:21:10;17.0;;;8.5;;
36833;SDS011;48003;52.084;5.224;2023-11-21T12:22:46;14.4;;;8.9;;
36833;SDS011;48003;52.084;5.224;2023-11-21T12:24:23;14.8;;;9.21;;
36833;SDS011;48003;52.084;5.224;2023-11-21T12:27:36;15.2;;;9.0;;
36833;SDS011;48003;52.084;5.224;2023-11-21T12:29:12;14.7;;;8.2;;
36833;SDS011;48003;52.084;5.224;2023-11-21T12:30:48;15.6;;;9.5;;
36833;SDS011;48003;52.084;5.224;2023-11-21T12:32:24;16.4;;;9.71;;
36833;SDS011;48003;52.084;5.224;2023-11-21T12:35:36;16.8;;;9.71;;
36833;SDS011;48003;52.084;5.224;2023-11-21T12:37:13;14.8;;;9.0;;
36833;SDS011;48003;52.084;5.224;2023-11-21T12:38:49;16.2;;;9.31;;
36833;SDS011;48003;52.084;5.224;2023-11-21T12:42:02;16.2;;;9.6;;